createdAt,value
2018-03-27T00:00:20.667Z,7.80
2018-03-27T00:02:46.903Z,7.60
2018-03-27T00:05:15.149Z,7.50
2018-03-27T00:07:42.119Z,7.60
2018-03-27T00:10:08.420Z,7.80
2018-03-27T00:12:34.673Z,8.00
2018-03-27T00:15:00.912Z,7.70
2018-03-27T00:17:27.191Z,7.50
2018-03-27T00:19:54.192Z,7.60
2018-03-27T00:22:20.456Z,7.40
2018-03-27T00:24:46.694Z,7.60
2018-03-27T00:27:13.479Z,7.60
2018-03-27T00:29:51.994Z,7.40
2018-03-27T00:32:30.494Z,8.00
2018-03-27T00:35:09.127Z,7.80
2018-03-27T00:37:47.623Z,7.80
2018-03-27T00:40:26.132Z,7.70
2018-03-27T00:42:53.146Z,7.80
2018-03-27T00:45:19.416Z,7.70
2018-03-27T00:47:45.650Z,8.10
2018-03-27T00:50:11.934Z,7.80
2018-03-27T00:52:38.160Z,7.70
2018-03-27T00:55:04.395Z,7.60
2018-03-27T00:57:30.638Z,7.60
2018-03-27T00:59:57.617Z,7.60
2018-03-27T01:02:23.866Z,7.50
2018-03-27T01:04:50.116Z,7.20
2018-03-27T01:07:16.355Z,7.40
2018-03-27T01:09:42.604Z,7.20
2018-03-27T01:12:09.595Z,7.20
2018-03-27T01:14:35.862Z,7.30
2018-03-27T01:17:02.126Z,7.20
2018-03-27T01:19:28.404Z,7.30
2018-03-27T01:21:54.648Z,6.80
2018-03-27T01:24:20.880Z,7.20
2018-03-27T01:26:47.117Z,7.10
2018-03-27T01:29:13.348Z,7.30
2018-03-27T01:31:39.603Z,7.40
2018-03-27T01:34:05.849Z,7.10
2018-03-27T01:36:32.104Z,7.40
2018-03-27T01:38:58.346Z,7.10
2018-03-27T01:41:24.594Z,6.80
2018-03-27T01:43:50.821Z,6.90
2018-03-27T01:46:17.819Z,7.20
2018-03-27T01:48:44.066Z,7.00
2018-03-27T01:51:11.044Z,7.20
2018-03-27T01:53:38.066Z,7.00
2018-03-27T01:56:04.311Z,7.30
2018-03-27T01:58:30.575Z,7.20
2018-03-27T02:00:56.807Z,6.90
2018-03-27T02:03:23.079Z,6.90
2018-03-27T02:05:49.327Z,6.80
2018-03-27T02:08:15.555Z,6.80
2018-03-27T02:10:41.727Z,6.90
2018-03-27T02:13:13.996Z,7.00
2018-03-27T02:15:46.347Z,6.80
2018-03-27T02:18:19.437Z,7.00
2018-03-27T02:20:52.696Z,6.60
2018-03-27T02:23:24.819Z,6.60
2018-03-27T02:25:51.065Z,6.60
2018-03-27T02:28:17.318Z,6.30
2018-03-27T02:30:43.558Z,6.30
2018-03-27T02:33:09.812Z,6.30
2018-03-27T02:35:36.791Z,6.40
2018-03-27T02:38:03.056Z,6.40
2018-03-27T02:40:29.296Z,6.40
2018-03-27T02:42:55.559Z,6.20
2018-03-27T02:45:21.820Z,6.50
2018-03-27T02:47:48.097Z,6.20
2018-03-27T02:50:15.095Z,6.20
2018-03-27T02:52:41.340Z,6.40
2018-03-27T02:55:07.611Z,6.20
2018-03-27T02:57:34.628Z,6.30
2018-03-27T03:00:00.875Z,6.20
2018-03-27T03:02:27.115Z,6.20
2018-03-27T03:04:54.162Z,6.30
2018-03-27T03:07:21.179Z,6.20
2018-03-27T03:09:47.414Z,6.30
2018-03-27T03:12:13.696Z,6.30
2018-03-27T03:14:39.964Z,6.00
2018-03-27T03:17:06.214Z,6.20
2018-03-27T03:19:32.443Z,5.80
2018-03-27T03:21:58.683Z,6.00
2018-03-27T03:24:25.699Z,6.20
2018-03-27T03:26:51.967Z,6.40
2018-03-27T03:29:18.939Z,6.30
2018-03-27T03:31:45.175Z,6.10
2018-03-27T03:34:11.423Z,6.00
2018-03-27T03:36:37.656Z,6.00
2018-03-27T03:39:04.851Z,6.10
2018-03-27T03:41:31.831Z,6.10
2018-03-27T03:43:58.155Z,6.00
2018-03-27T03:46:24.383Z,5.80
2018-03-27T03:48:50.630Z,6.10
2018-03-27T03:51:16.867Z,5.80
2018-03-27T03:53:43.095Z,6.10
2018-03-27T03:56:09.336Z,5.90
2018-03-27T03:58:35.587Z,5.90
2018-03-27T04:01:01.839Z,6.10
2018-03-27T04:03:28.071Z,5.80
2018-03-27T04:05:54.350Z,5.80
2018-03-27T04:08:20.595Z,5.90
2018-03-27T04:10:46.842Z,5.70
2018-03-27T04:13:13.087Z,5.50
2018-03-27T04:15:39.358Z,5.90
2018-03-27T04:18:05.620Z,5.80
2018-03-27T04:20:31.867Z,6.00
2018-03-27T04:22:58.839Z,5.70
2018-03-27T04:25:25.070Z,5.70
2018-03-27T04:27:51.339Z,5.60
2018-03-27T04:30:17.569Z,5.50
2018-03-27T04:32:43.824Z,5.60
2018-03-27T04:35:10.809Z,5.60
2018-03-27T04:37:37.067Z,5.60
2018-03-27T04:40:03.304Z,5.60
2018-03-27T04:42:29.579Z,5.70
2018-03-27T04:44:55.807Z,5.60
2018-03-27T04:47:22.059Z,5.60
2018-03-27T04:49:48.348Z,5.20
2018-03-27T04:52:14.592Z,5.50
2018-03-27T04:54:40.838Z,5.10
2018-03-27T04:57:07.088Z,5.20
2018-03-27T04:59:33.340Z,5.30
2018-03-27T05:01:59.576Z,5.40
2018-03-27T05:04:26.596Z,5.20
2018-03-27T05:06:52.856Z,5.30
2018-03-27T05:09:26.136Z,5.20
2018-03-27T05:11:52.377Z,5.10
2018-03-27T05:14:19.723Z,5.20
2018-03-27T05:16:46.049Z,5.00
2018-03-27T05:19:12.352Z,5.00
2018-03-27T05:21:38.616Z,4.80
2018-03-27T05:24:04.861Z,5.10
2018-03-27T05:26:31.926Z,5.40
2018-03-27T05:28:58.127Z,5.30
2018-03-27T05:31:24.378Z,5.10
2018-03-27T05:33:51.381Z,5.70
2018-03-27T05:36:17.660Z,5.70
2018-03-27T05:38:43.943Z,5.20
2018-03-27T05:41:10.178Z,5.30
2018-03-27T05:43:36.440Z,5.50
2018-03-27T05:46:02.704Z,5.40
2018-03-27T05:48:29.014Z,5.60
2018-03-27T05:50:55.265Z,5.20
2018-03-27T05:53:21.551Z,5.20
2018-03-27T05:55:48.615Z,5.60
2018-03-27T05:58:14.907Z,5.70
2018-03-27T06:00:41.155Z,5.90
2018-03-27T06:03:08.149Z,6.60
2018-03-27T06:05:34.417Z,6.60
2018-03-27T06:08:01.415Z,7.20
2018-03-27T06:10:27.694Z,7.40
2018-03-27T06:12:53.964Z,7.70
2018-03-27T06:15:20.220Z,7.70
2018-03-27T06:17:46.455Z,7.30
2018-03-27T06:20:12.747Z,7.00
2018-03-27T06:22:38.980Z,7.50
2018-03-27T06:25:05.239Z,8.10
2018-03-27T06:27:31.475Z,7.90
2018-03-27T06:29:57.787Z,7.80
2018-03-27T06:32:24.063Z,7.80
2018-03-27T06:34:51.096Z,7.30
2018-03-27T06:37:17.358Z,7.20
2018-03-27T06:39:43.603Z,7.00
2018-03-27T06:42:09.957Z,7.10
2018-03-27T06:44:36.130Z,8.20
2018-03-27T06:47:03.180Z,8.20
2018-03-27T06:49:29.442Z,8.30
2018-03-27T06:51:55.679Z,8.00
2018-03-27T06:54:21.953Z,8.10
2018-03-27T06:56:48.247Z,8.50
2018-03-27T06:59:14.520Z,9.20
2018-03-27T07:01:40.766Z,9.30
2018-03-27T07:04:07.763Z,10.30
2018-03-27T07:06:34.003Z,10.10
2018-03-27T07:09:00.277Z,10.50
2018-03-27T07:11:27.255Z,10.50
2018-03-27T07:13:53.531Z,10.70
2018-03-27T07:16:19.793Z,11.40
2018-03-27T07:18:46.057Z,11.70
2018-03-27T07:21:12.300Z,11.50
2018-03-27T07:23:39.311Z,11.50
2018-03-27T07:26:05.570Z,11.40
2018-03-27T07:28:32.539Z,9.60
2018-03-27T07:30:59.549Z,8.30
2018-03-27T07:33:25.787Z,8.40
2018-03-27T07:35:52.656Z,8.30
2018-03-27T07:38:18.947Z,8.60
2018-03-27T07:40:45.187Z,8.60
2018-03-27T07:43:11.557Z,8.30
2018-03-27T07:45:38.555Z,7.40
2018-03-27T07:48:04.815Z,7.30
2018-03-27T07:50:31.067Z,7.10
2018-03-27T07:52:58.060Z,7.30
2018-03-27T07:55:24.312Z,7.20
2018-03-27T07:57:50.575Z,7.50
2018-03-27T08:00:17.583Z,8.10
2018-03-27T08:02:44.162Z,7.80
2018-03-27T08:05:11.180Z,8.40
2018-03-27T08:07:37.417Z,8.10
2018-03-27T08:10:03.665Z,8.20
2018-03-27T08:12:30.643Z,7.60
2018-03-27T08:14:56.887Z,7.50
2018-03-27T08:17:23.133Z,7.20
2018-03-27T08:19:49.398Z,7.30
2018-03-27T08:22:16.387Z,7.60
2018-03-27T08:24:42.635Z,7.60
2018-03-27T08:27:08.886Z,7.40
2018-03-27T08:29:35.111Z,7.80
2018-03-27T08:32:01.361Z,8.00
2018-03-27T08:34:28.367Z,7.70
2018-03-27T08:36:54.612Z,8.00
2018-03-27T08:39:20.879Z,7.90
2018-03-27T08:41:47.138Z,7.90
2018-03-27T08:44:13.396Z,8.60
2018-03-27T08:46:39.657Z,8.90
2018-03-27T08:49:06.644Z,9.60
2018-03-27T08:51:32.886Z,10.00
2018-03-27T08:53:59.142Z,9.50
2018-03-27T08:56:25.511Z,9.00
2018-03-27T08:58:51.775Z,9.10
2018-03-27T09:01:18.055Z,9.60
2018-03-27T09:03:45.132Z,9.80
2018-03-27T09:06:11.347Z,9.80
2018-03-27T09:08:37.584Z,9.90
2018-03-27T09:11:03.870Z,9.50
2018-03-27T09:13:30.116Z,9.90
2018-03-27T09:15:57.168Z,9.10
2018-03-27T09:18:24.217Z,8.50
2018-03-27T09:20:50.505Z,8.50
2018-03-27T09:23:16.796Z,8.60
2018-03-27T09:25:43.095Z,8.50
2018-03-27T09:28:10.103Z,8.80
2018-03-27T09:33:10.166Z,8.60
2018-03-27T09:35:37.219Z,8.60
2018-03-27T09:38:03.464Z,8.50
2018-03-27T09:40:30.456Z,8.50
2018-03-27T09:42:56.699Z,8.50
2018-03-27T09:45:22.936Z,8.80
2018-03-27T09:47:49.191Z,9.20
2018-03-27T09:50:16.167Z,9.50
2018-03-27T09:52:42.446Z,9.10
2018-03-27T09:55:08.693Z,9.10
2018-03-27T09:57:34.970Z,9.00
2018-03-27T10:00:01.243Z,9.10
2018-03-27T10:02:27.498Z,9.10
2018-03-27T10:04:54.482Z,9.20
2018-03-27T10:07:20.811Z,9.30
2018-03-27T10:09:47.059Z,9.80
2018-03-27T10:12:13.311Z,10.20
2018-03-27T10:14:39.575Z,10.20
2018-03-27T10:17:05.836Z,10.30
2018-03-27T10:19:32.090Z,9.90
2018-03-27T10:21:58.333Z,9.80
2018-03-27T10:24:25.346Z,10.00
2018-03-27T10:26:51.586Z,9.90
2018-03-27T10:29:17.827Z,9.90
2018-03-27T10:31:44.097Z,10.20
2018-03-27T10:34:10.435Z,10.10
2018-03-27T10:36:36.697Z,9.90
2018-03-27T10:39:03.003Z,10.50
2018-03-27T10:41:29.256Z,10.30
2018-03-27T10:43:55.503Z,10.80
2018-03-27T10:46:21.767Z,10.90
2018-03-27T10:48:48.039Z,11.20
2018-03-27T10:51:14.314Z,11.10
2018-03-27T10:53:41.292Z,11.50
2018-03-27T10:56:07.544Z,11.50
2018-03-27T10:58:33.787Z,11.80
2018-03-27T11:01:00.064Z,12.20
2018-03-27T11:03:26.296Z,12.30
2018-03-27T11:05:52.549Z,12.30
2018-03-27T11:08:18.834Z,12.60
2018-03-27T11:10:45.207Z,12.90
2018-03-27T11:13:11.467Z,12.90
2018-03-27T11:15:37.769Z,12.70
2018-03-27T11:18:04.093Z,12.40
2018-03-27T11:20:30.332Z,11.80
2018-03-27T11:22:56.601Z,11.50
2018-03-27T11:25:22.844Z,11.90
2018-03-27T11:27:49.831Z,12.20
2018-03-27T11:30:16.081Z,12.20
2018-03-27T11:32:42.347Z,12.50
2018-03-27T11:35:09.351Z,12.90
2018-03-27T11:37:35.595Z,13.00
2018-03-27T11:40:01.870Z,12.60
2018-03-27T11:42:28.911Z,12.70
2018-03-27T11:44:55.964Z,13.40
2018-03-27T11:47:22.251Z,13.50
2018-03-27T11:49:48.527Z,13.60
2018-03-27T11:52:14.772Z,13.50
2018-03-27T11:54:41.116Z,13.10
2018-03-27T11:57:07.343Z,12.80
2018-03-27T11:59:33.604Z,13.20
2018-03-27T12:01:59.915Z,12.70
2018-03-27T12:04:26.190Z,13.30
2018-03-27T12:06:53.213Z,13.50
2018-03-27T12:09:19.495Z,13.90
2018-03-27T12:11:45.759Z,12.80
2018-03-27T12:14:12.019Z,12.80
2018-03-27T12:16:39.034Z,12.80
2018-03-27T12:19:05.321Z,12.60
2018-03-27T12:21:31.596Z,12.60
2018-03-27T12:23:57.887Z,12.60
2018-03-27T12:26:24.174Z,12.40
2018-03-27T12:28:50.509Z,12.20
2018-03-27T12:31:16.771Z,12.20
2018-03-27T12:33:43.007Z,12.10
2018-03-27T12:36:09.288Z,12.10
2018-03-27T12:38:36.288Z,12.30
2018-03-27T12:41:02.628Z,12.10
2018-03-27T12:43:28.871Z,12.10
2018-03-27T12:45:55.193Z,12.20
2018-03-27T12:48:21.471Z,12.10
2018-03-27T12:50:48.483Z,12.00
2018-03-27T12:53:14.805Z,12.10
2018-03-27T12:55:41.033Z,12.10
2018-03-27T12:58:07.295Z,12.20
2018-03-27T13:00:33.540Z,12.30
2018-03-27T13:02:59.827Z,12.20
2018-03-27T13:05:27.674Z,12.20
2018-03-27T13:07:53.941Z,12.10
2018-03-27T13:10:20.196Z,12.20
2018-03-27T13:12:47.227Z,12.30
2018-03-27T13:15:13.540Z,12.60
2018-03-27T13:17:39.822Z,12.30
2018-03-27T13:20:06.116Z,11.90
2018-03-27T13:22:32.487Z,11.80
2018-03-27T13:24:58.720Z,11.50
2018-03-27T13:27:24.958Z,11.40
2018-03-27T13:29:51.236Z,11.50
2018-03-27T13:32:17.612Z,11.50
2018-03-27T13:34:43.814Z,11.80
2018-03-27T13:37:10.085Z,11.80
2018-03-27T13:39:36.356Z,11.70
2018-03-27T13:42:02.651Z,11.80
2018-03-27T13:44:28.964Z,11.90
2018-03-27T13:46:55.272Z,12.00
2018-03-27T13:49:21.507Z,11.70
2018-03-27T13:51:47.748Z,11.80
2018-03-27T13:54:14.110Z,11.70
2018-03-27T13:56:40.368Z,11.70
2018-03-27T13:59:06.635Z,11.80
2018-03-27T14:01:32.887Z,11.80
2018-03-27T14:03:59.166Z,11.60
2018-03-27T14:06:26.251Z,12.20
2018-03-27T14:08:52.529Z,12.20
2018-03-27T14:11:19.579Z,12.30
2018-03-27T14:13:46.648Z,12.10
2018-03-27T14:16:12.951Z,12.00
2018-03-27T14:18:39.199Z,11.90
2018-03-27T14:21:06.211Z,11.70
2018-03-27T14:23:33.231Z,11.40
2018-03-27T14:25:59.485Z,11.20
2018-03-27T14:28:25.751Z,11.40
2018-03-27T14:30:52.000Z,11.40
2018-03-27T14:33:18.999Z,10.80
2018-03-27T14:35:45.311Z,11.00
2018-03-27T14:38:11.621Z,11.10
2018-03-27T14:40:38.572Z,11.00
2018-03-27T14:43:04.895Z,10.80
2018-03-27T14:45:31.210Z,10.90
2018-03-27T14:47:57.479Z,10.70
2018-03-27T14:50:23.744Z,10.70
2018-03-27T14:52:50.016Z,10.60
2018-03-27T14:55:16.258Z,10.40
2018-03-27T14:57:42.693Z,10.50
2018-03-27T15:00:09.011Z,10.10
2018-03-27T15:02:35.280Z,10.30
2018-03-27T15:05:01.649Z,10.70
2018-03-27T15:07:27.942Z,10.00
2018-03-27T15:09:54.210Z,10.20
2018-03-27T15:12:21.441Z,10.30
2018-03-27T15:14:48.491Z,10.30
2018-03-27T15:17:14.760Z,10.10
2018-03-27T15:19:41.031Z,10.00
2018-03-27T15:22:08.068Z,9.60
2018-03-27T15:24:34.461Z,10.00
2018-03-27T15:27:00.723Z,10.00
2018-03-27T15:29:27.135Z,9.90
2018-03-27T15:31:53.407Z,10.00
2018-03-27T15:34:19.666Z,9.80
2018-03-27T15:36:46.696Z,9.30
2018-03-27T15:39:12.968Z,9.40
2018-03-27T15:41:39.225Z,9.60
2018-03-27T15:44:05.554Z,9.60
2018-03-27T15:46:31.799Z,9.50
2018-03-27T15:48:58.065Z,9.40
2018-03-27T15:51:25.076Z,9.20
2018-03-27T15:53:51.310Z,9.30
2018-03-27T15:56:17.572Z,9.00
2018-03-27T15:58:44.555Z,9.20
2018-03-27T16:01:10.842Z,9.30
2018-03-27T16:03:37.827Z,8.90
2018-03-27T16:06:04.135Z,9.20
2018-03-27T16:08:30.375Z,8.70
2018-03-27T16:10:56.641Z,9.00
2018-03-27T16:13:22.896Z,8.90
2018-03-27T16:15:49.967Z,9.20
2018-03-27T16:18:16.952Z,9.00
2018-03-27T16:20:43.252Z,9.00
2018-03-27T16:23:09.487Z,9.00
2018-03-27T16:25:35.739Z,8.80
2018-03-27T16:28:02.007Z,9.10
2018-03-27T16:30:28.281Z,8.70
2018-03-27T16:32:54.583Z,8.60
2018-03-27T16:35:21.587Z,8.20
2018-03-27T16:37:47.885Z,8.30
2018-03-27T16:40:14.151Z,8.20
2018-03-27T16:42:40.455Z,8.30
2018-03-27T16:45:06.712Z,8.50
2018-03-27T16:47:32.999Z,8.10
2018-03-27T16:49:59.231Z,7.80
2018-03-27T16:52:25.493Z,8.30
2018-03-27T16:54:51.750Z,8.00
2018-03-27T16:57:18.044Z,8.00
2018-03-27T16:59:44.312Z,8.20
2018-03-27T17:02:10.625Z,7.90
2018-03-27T17:04:36.907Z,8.20
2018-03-27T17:07:03.197Z,8.30
2018-03-27T17:09:30.192Z,8.30
2018-03-27T17:11:56.458Z,8.20
2018-03-27T17:14:22.760Z,7.90
2018-03-27T17:16:49.100Z,7.70
2018-03-27T17:19:15.377Z,7.90
2018-03-27T17:21:42.412Z,8.10
2018-03-27T17:24:08.700Z,8.20
2018-03-27T17:26:34.982Z,8.00
2018-03-27T17:29:02.039Z,7.90
2018-03-27T17:31:29.101Z,8.10
2018-03-27T17:33:55.324Z,8.10
2018-03-27T17:36:21.575Z,7.90
2018-03-27T17:38:47.855Z,8.30
2018-03-27T17:41:14.099Z,7.80
2018-03-27T17:43:41.104Z,7.80
2018-03-27T17:46:07.349Z,8.30
2018-03-27T17:48:33.615Z,7.80
2018-03-27T17:51:00.638Z,8.10
2018-03-27T17:53:26.923Z,8.30
2018-03-27T17:55:53.190Z,8.20
2018-03-27T17:58:19.441Z,8.10
2018-03-27T18:00:45.680Z,8.00
2018-03-27T18:03:12.676Z,8.00
2018-03-27T18:05:38.959Z,8.20
2018-03-27T18:08:05.951Z,8.20
2018-03-27T18:10:32.231Z,8.00
2018-03-27T18:12:58.487Z,8.00
2018-03-27T18:15:24.826Z,8.30
2018-03-27T18:17:51.108Z,7.90
2018-03-27T18:20:18.119Z,7.90
2018-03-27T18:22:44.456Z,7.80
2018-03-27T18:25:10.737Z,8.00
2018-03-27T18:27:37.043Z,7.70
2018-03-27T18:30:03.323Z,7.80
2018-03-27T18:32:29.596Z,8.00
2018-03-27T18:34:55.859Z,7.70
2018-03-27T18:37:22.191Z,7.80
2018-03-27T18:39:48.482Z,8.00
2018-03-27T18:42:14.756Z,7.90
2018-03-27T18:44:41.000Z,7.90
2018-03-27T18:47:07.343Z,7.60
2018-03-27T18:49:33.631Z,8.00
2018-03-27T18:52:00.692Z,7.80
2018-03-27T18:54:26.940Z,7.80
2018-03-27T18:56:53.564Z,7.70
2018-03-27T18:59:19.812Z,7.80
2018-03-27T19:01:46.079Z,7.70
2018-03-27T19:04:12.372Z,7.90
2018-03-27T19:06:38.619Z,7.70
2018-03-27T19:09:04.915Z,7.90
2018-03-27T19:11:31.167Z,7.90
2018-03-27T19:13:57.475Z,7.90
2018-03-27T19:16:23.779Z,7.80
2018-03-27T19:18:50.800Z,7.90
2018-03-27T19:21:17.047Z,8.00
2018-03-27T19:23:44.119Z,7.90
2018-03-27T19:26:10.409Z,7.90
2018-03-27T19:28:36.688Z,7.80
2018-03-27T19:31:03.019Z,7.70
2018-03-27T19:33:29.253Z,7.90
2018-03-27T19:35:55.509Z,7.70
2018-03-27T19:38:21.771Z,7.90
2018-03-27T19:40:48.054Z,8.00
2018-03-27T19:43:14.295Z,7.80
2018-03-27T19:45:40.586Z,7.70
2018-03-27T19:48:06.858Z,7.60
2018-03-27T19:50:33.124Z,7.70
2018-03-27T19:52:59.359Z,7.70
2018-03-27T19:55:26.372Z,7.80
2018-03-27T19:57:52.665Z,7.80
2018-03-27T20:00:18.929Z,7.50
2018-03-27T20:02:45.176Z,7.80
2018-03-27T20:05:11.513Z,7.50
2018-03-27T20:07:39.464Z,7.60
2018-03-27T20:10:05.748Z,7.50
2018-03-27T20:12:32.037Z,7.60
2018-03-27T20:14:58.873Z,8.00
2018-03-27T20:17:25.154Z,7.60
2018-03-27T20:19:51.405Z,7.80
2018-03-27T20:22:17.673Z,7.80
2018-03-27T20:24:44.679Z,7.50
2018-03-27T20:27:10.960Z,7.50
2018-03-27T20:29:37.954Z,7.50
2018-03-27T20:32:04.248Z,7.70
2018-03-27T20:34:30.499Z,7.50
2018-03-27T20:36:56.783Z,7.70
2018-03-27T20:39:23.027Z,7.60
2018-03-27T20:41:50.044Z,7.60
2018-03-27T20:44:16.364Z,7.40
2018-03-27T20:46:42.661Z,7.60
2018-03-27T20:49:08.941Z,7.50
2018-03-27T20:51:35.164Z,7.40
2018-03-27T20:54:01.421Z,7.50
2018-03-27T20:56:28.431Z,7.60
2018-03-27T20:58:54.703Z,7.40
2018-03-27T21:01:21.682Z,7.50
2018-03-27T21:03:48.000Z,7.40
2018-03-27T21:06:14.317Z,7.60
2018-03-27T21:08:41.407Z,7.80
2018-03-27T21:11:07.665Z,7.40
2018-03-27T21:13:33.960Z,7.60
2018-03-27T21:16:00.216Z,7.60
2018-03-27T21:18:26.487Z,7.80
2018-03-27T21:20:52.758Z,7.40
2018-03-27T21:23:19.032Z,7.70
2018-03-27T21:25:45.304Z,7.50
2018-03-27T21:28:11.554Z,7.40
2018-03-27T21:30:37.805Z,7.60
2018-03-27T21:33:04.042Z,7.40
2018-03-27T21:35:31.065Z,7.50
2018-03-27T21:37:57.308Z,7.70
2018-03-27T21:40:23.588Z,7.50
2018-03-27T21:42:49.850Z,7.70
2018-03-27T21:45:16.147Z,7.50
2018-03-27T21:47:42.427Z,7.30
2018-03-27T21:50:08.712Z,7.50
2018-03-27T21:52:34.958Z,7.50
2018-03-27T21:55:01.227Z,7.60
2018-03-27T21:57:27.455Z,7.50
2018-03-27T21:59:53.985Z,7.70
2018-03-27T22:02:20.991Z,7.50
2018-03-27T22:04:47.243Z,7.60
2018-03-27T22:07:13.496Z,7.40
2018-03-27T22:09:40.487Z,7.70
2018-03-27T22:12:06.756Z,7.40
2018-03-27T22:14:33.004Z,7.50
2018-03-27T22:17:00.070Z,7.50
2018-03-27T22:19:27.040Z,7.80
2018-03-27T22:21:53.303Z,7.90
2018-03-27T22:24:19.553Z,7.70
2018-03-27T22:26:45.811Z,7.60
2018-03-27T22:29:12.047Z,7.50
2018-03-27T22:31:38.295Z,7.70
2018-03-27T22:34:04.571Z,7.70
2018-03-27T22:36:30.832Z,7.80
2018-03-27T22:38:57.078Z,8.00
2018-03-27T22:41:23.392Z,7.70
2018-03-27T22:43:49.772Z,7.70
2018-03-27T22:46:16.044Z,7.80
2018-03-27T22:48:43.099Z,7.70
2018-03-27T22:51:09.464Z,7.90
2018-03-27T22:53:35.724Z,7.70
2018-03-27T22:56:02.023Z,7.80
2018-03-27T22:58:28.343Z,7.80
2018-03-27T23:00:54.623Z,8.10
2018-03-27T23:03:20.885Z,7.80
2018-03-27T23:05:47.144Z,7.70
2018-03-27T23:08:13.430Z,7.90
2018-03-27T23:10:39.703Z,7.80
2018-03-27T23:13:06.246Z,7.80
2018-03-27T23:15:32.495Z,7.80
2018-03-27T23:17:58.762Z,7.80
2018-03-27T23:20:25.040Z,8.10
2018-03-27T23:22:51.427Z,8.10
2018-03-27T23:25:17.691Z,8.30
2018-03-27T23:27:44.024Z,8.10
2018-03-27T23:30:10.301Z,8.10
2018-03-27T23:32:37.328Z,8.20
2018-03-27T23:35:03.615Z,8.40
2018-03-27T23:37:29.872Z,8.20
2018-03-27T23:39:56.142Z,8.20
2018-03-27T23:42:23.139Z,8.10
2018-03-27T23:44:49.399Z,8.20
2018-03-27T23:47:15.639Z,8.30
2018-03-27T23:49:42.635Z,8.30
2018-03-27T23:52:08.880Z,8.20
2018-03-27T23:54:35.153Z,8.40
2018-03-27T23:57:02.172Z,8.60
2018-03-27T23:59:28.435Z,8.30
